KSCF/SCF METAR and TAF weather

Enter ICAO airport designator
Station Type Date Time Source
KSCF METAR 2020/09/22 06:15 UTC NOAA

KSCF 220615Z AUTO 09027G33KT 1 1/4SM BR BKN006 BKN010 OVC015 25/25 A2993 RMK A01


Station Type Date Time Source
KSCF Decoded METAR 2020/09/22 06:15 UTC NOAA

South Marsh 268, LA, United States (KSCF) 29-06-57N 091-52-16W
Sep 22, 2020 - 02:15 AM EDT / 2020.09.22 0615 UTC
Wind: from the E (090 degrees) at 31 MPH (27 KT) gusting to 38 MPH (33 KT):0
Visibility: 1 1/4 mile(s):0
Sky conditions: overcast
Weather: mist
Temperature: 77 F (25 C)
Dew Point: 77 F (25 C)
Relative Humidity: 100%
Pressure (altimeter): 29.93 in. Hg (1013 hPa)
ob: KSCF 220615Z AUTO 09027G33KT 1 1/4SM BR BKN006 BKN010 OVC015 25/25 A2993 RMK A01
cycle: 6

Station Type Date Time Source
KSCF TAF UTC NOAA

Error!

Example: see airport list